createdAt,value
2019-04-03T00:01:04.713Z,4.90
2019-04-03T00:03:35.583Z,7.20
2019-04-03T00:06:05.876Z,3.25
2019-04-03T00:08:36.668Z,5.33
2019-04-03T00:11:09.641Z,5.50
2019-04-03T00:13:42.217Z,5.42
2019-04-03T00:16:17.036Z,7.12
2019-04-03T00:18:43.942Z,5.08
2019-04-03T00:21:15.019Z,3.45
2019-04-03T00:23:44.647Z,6.78
2019-04-03T00:26:18.078Z,3.95
2019-04-03T00:28:47.692Z,5.17
2019-04-03T00:31:17.310Z,2.60
2019-04-03T00:33:46.936Z,3.20
2019-04-03T00:36:16.536Z,4.97
2019-04-03T00:38:46.174Z,4.00
2019-04-03T00:41:15.776Z,7.17
2019-04-03T00:43:45.427Z,7.50
2019-04-03T00:46:15.047Z,3.92
2019-04-03T00:48:44.669Z,5.58
2019-04-03T00:51:14.288Z,4.62
2019-04-03T00:53:49.135Z,3.35
2019-04-03T00:56:18.771Z,2.42
2019-04-03T00:58:48.410Z,4.87
2019-04-03T01:01:18.182Z,4.35
2019-04-03T01:03:47.892Z,4.25
2019-04-03T01:06:17.598Z,3.95
2019-04-03T01:08:47.240Z,4.35
2019-04-03T01:11:23.887Z,3.65
2019-04-03T01:13:53.883Z,4.37
2019-04-03T01:16:23.501Z,3.50
2019-04-03T01:18:54.156Z,2.80
2019-04-03T01:21:26.399Z,7.15
2019-04-03T01:23:59.505Z,3.55
2019-04-03T01:26:29.134Z,3.52
2019-04-03T01:28:58.758Z,4.37
2019-04-03T01:31:28.383Z,4.05
2019-04-03T01:33:59.340Z,5.50
2019-04-03T01:36:29.091Z,2.77
2019-04-03T01:38:58.831Z,4.58
2019-04-03T01:41:28.458Z,3.67
2019-04-03T01:43:58.072Z,3.77
2019-04-03T01:46:28.164Z,6.55
2019-04-03T01:48:58.652Z,10.50
2019-04-03T01:51:29.722Z,5.62
2019-04-03T01:54:04.849Z,5.15
2019-04-03T01:56:36.356Z,4.05
2019-04-03T01:59:06.649Z,4.70
2019-04-03T02:01:38.658Z,3.30
2019-04-03T02:04:10.630Z,5.55
2019-04-03T02:06:43.108Z,4.85
2019-04-03T02:09:11.938Z,3.02
2019-04-03T02:11:43.472Z,4.42
2019-04-03T02:14:13.092Z,6.65
2019-04-03T02:16:44.342Z,4.37
2019-04-03T02:19:14.039Z,4.35
2019-04-03T02:21:44.856Z,5.20
2019-04-03T02:24:14.600Z,2.62
2019-04-03T02:26:44.372Z,4.47
2019-04-03T02:29:14.011Z,4.35
2019-04-03T02:31:43.639Z,5.67
2019-04-03T02:34:13.239Z,6.55
2019-04-03T02:36:44.015Z,3.98
2019-04-03T02:39:17.091Z,3.12
2019-04-03T02:41:48.449Z,2.22
2019-04-03T02:44:19.884Z,5.28
2019-04-03T02:46:49.972Z,3.08
2019-04-03T02:49:33.998Z,3.35
2019-04-03T02:52:03.772Z,3.15
2019-04-03T02:54:36.483Z,5.35
2019-04-03T02:57:06.157Z,4.10
2019-04-03T02:59:35.777Z,2.45
2019-04-03T03:02:07.163Z,3.67
2019-04-03T03:04:37.587Z,2.33
2019-04-03T03:07:07.210Z,3.77
2019-04-03T03:09:37.248Z,2.77
2019-04-03T03:12:07.446Z,5.15
2019-04-03T03:14:39.299Z,3.35
2019-04-03T03:17:09.726Z,3.72
2019-04-03T03:19:44.653Z,3.08
2019-04-03T03:22:12.568Z,4.03
2019-04-03T03:24:45.063Z,2.45
2019-04-03T03:27:15.065Z,2.90
2019-04-03T03:29:44.868Z,5.05
2019-04-03T03:32:21.291Z,4.95
2019-04-03T03:34:57.290Z,3.87
2019-04-03T03:37:23.030Z,3.83
2019-04-03T03:39:52.938Z,2.72
2019-04-03T03:42:23.433Z,5.20
2019-04-03T03:44:55.314Z,2.10
2019-04-03T03:47:27.600Z,3.25
2019-04-03T03:49:57.672Z,3.25
2019-04-03T03:52:27.615Z,3.25
2019-04-03T03:54:57.969Z,3.58
2019-04-03T03:57:28.032Z,2.35
2019-04-03T03:59:59.114Z,3.40
2019-04-03T04:02:36.121Z,4.28
2019-04-03T04:05:10.048Z,2.67
2019-04-03T04:07:38.355Z,3.25
2019-04-03T04:10:08.722Z,4.50
2019-04-03T04:12:41.184Z,5.62
2019-04-03T04:15:12.320Z,3.98
2019-04-03T04:17:42.503Z,4.50
2019-04-03T04:20:12.321Z,5.40
2019-04-03T04:22:49.043Z,2.77
2019-04-03T04:25:16.319Z,3.55
2019-04-03T04:27:46.515Z,3.77
2019-04-03T04:30:18.983Z,3.58
2019-04-03T04:32:48.699Z,4.15
2019-04-03T04:35:20.682Z,5.42
2019-04-03T04:37:49.766Z,5.12
2019-04-03T04:40:23.080Z,6.53
2019-04-03T04:42:56.704Z,4.50
2019-04-03T04:45:26.364Z,4.53
2019-04-03T04:47:57.423Z,4.03
2019-04-03T04:50:27.051Z,3.85
2019-04-03T04:52:58.649Z,4.37
2019-04-03T04:55:30.435Z,5.05
2019-04-03T04:57:59.427Z,3.98
2019-04-03T05:00:29.991Z,3.20
2019-04-03T05:03:05.963Z,3.05
2019-04-03T05:05:35.895Z,5.45
2019-04-03T05:08:05.686Z,3.08
2019-04-03T05:10:36.985Z,7.00
2019-04-03T05:13:07.206Z,8.73
2019-04-03T05:15:37.005Z,4.80
2019-04-03T05:18:07.014Z,5.53
2019-04-03T05:20:36.718Z,4.50
2019-04-03T05:23:06.346Z,4.95
2019-04-03T05:25:35.980Z,4.97
2019-04-03T05:28:05.848Z,4.45
2019-04-03T05:30:37.744Z,3.70
2019-04-03T05:33:11.775Z,2.80
2019-04-03T05:35:46.290Z,18.67
2019-04-03T05:38:15.908Z,6.25
2019-04-03T05:40:46.081Z,4.05
2019-04-03T05:43:15.912Z,3.52
2019-04-03T05:45:46.746Z,2.25
2019-04-03T05:48:17.770Z,2.80
2019-04-03T05:50:47.689Z,5.62
2019-04-03T05:53:19.528Z,5.12
2019-04-03T05:55:53.372Z,2.67
2019-04-03T05:58:25.839Z,3.27
2019-04-03T06:01:04.323Z,4.67
2019-04-03T06:03:38.523Z,7.42
2019-04-03T06:05:58.584Z,2.67
2019-04-03T06:08:28.379Z,3.55
2019-04-03T06:10:58.045Z,4.35
2019-04-03T06:13:27.677Z,3.85
2019-04-03T06:15:59.720Z,7.30
2019-04-03T06:18:31.592Z,5.95
2019-04-03T06:21:00.779Z,3.27
2019-04-03T06:23:31.364Z,2.50
2019-04-03T06:26:01.788Z,3.40
2019-04-03T06:28:32.344Z,3.17
2019-04-03T06:31:02.162Z,3.67
2019-04-03T06:33:33.576Z,2.30
2019-04-03T06:36:03.480Z,2.90
2019-04-03T06:38:33.315Z,3.85
2019-04-03T06:41:03.667Z,2.98
2019-04-03T06:43:33.720Z,2.27
2019-04-03T06:46:03.717Z,4.08
2019-04-03T06:48:34.651Z,4.08
2019-04-03T06:51:05.083Z,2.90
2019-04-03T06:53:34.812Z,3.25
2019-04-03T06:56:07.837Z,2.67
2019-04-03T06:58:40.219Z,3.42
2019-04-03T07:01:17.975Z,4.20
2019-04-03T07:03:47.983Z,2.45
2019-04-03T07:06:19.672Z,1.87
2019-04-03T07:08:49.353Z,3.77
2019-04-03T07:11:23.525Z,3.27
2019-04-03T07:13:53.178Z,5.40
2019-04-03T07:16:21.673Z,5.35
2019-04-03T07:19:02.775Z,1.90
2019-04-03T07:21:32.475Z,6.42
2019-04-03T07:24:03.336Z,4.17
2019-04-03T07:26:35.122Z,6.95
2019-04-03T07:29:04.628Z,4.20
2019-04-03T07:31:34.435Z,2.42
2019-04-03T07:34:05.259Z,2.92
2019-04-03T07:36:34.955Z,4.78
2019-04-03T07:39:10.574Z,5.40
2019-04-03T07:41:41.224Z,3.75
2019-04-03T07:44:11.293Z,3.70
2019-04-03T07:46:40.996Z,2.95
2019-04-03T07:49:13.542Z,3.30
2019-04-03T07:51:44.537Z,2.05
2019-04-03T07:54:14.151Z,1.95
2019-04-03T07:56:43.797Z,4.45
2019-04-03T07:59:13.455Z,12.50
2019-04-03T08:01:43.517Z,2.22
2019-04-03T08:04:15.854Z,2.30
2019-04-03T08:06:46.359Z,6.78
2019-04-03T08:09:15.988Z,3.52
2019-04-03T08:11:45.630Z,5.37
2019-04-03T08:14:21.252Z,1.98
2019-04-03T08:16:50.918Z,4.20
2019-04-03T08:19:20.902Z,4.85
2019-04-03T08:21:53.199Z,2.75
2019-04-03T08:24:22.851Z,3.98
2019-04-03T08:26:52.773Z,3.58
2019-04-03T08:29:22.532Z,4.55
2019-04-03T08:31:52.453Z,2.35
2019-04-03T08:34:22.126Z,2.10
2019-04-03T08:36:51.933Z,2.35
2019-04-03T08:39:21.651Z,4.95
2019-04-03T08:41:55.803Z,4.47
2019-04-03T08:44:25.071Z,2.15
2019-04-03T08:46:54.757Z,4.55
2019-04-03T08:49:26.305Z,2.75
2019-04-03T08:51:55.829Z,3.22
2019-04-03T08:54:25.471Z,2.77
2019-04-03T08:56:55.818Z,6.58
2019-04-03T08:59:27.978Z,2.72
2019-04-03T09:01:57.107Z,3.27
2019-04-03T09:04:26.798Z,2.20
2019-04-03T09:06:56.435Z,2.33
2019-04-03T09:09:27.016Z,1.98
2019-04-03T09:11:57.368Z,1.80
2019-04-03T09:14:29.510Z,3.55
2019-04-03T09:17:04.260Z,2.90
2019-04-03T09:19:35.335Z,3.65
2019-04-03T09:22:05.306Z,2.12
2019-04-03T09:24:35.034Z,1.80
2019-04-03T09:27:08.962Z,2.47
2019-04-03T09:29:40.863Z,2.67
2019-04-03T09:32:13.212Z,2.72
2019-04-03T09:34:46.048Z,3.65
2019-04-03T09:37:18.144Z,2.30
2019-04-03T09:39:47.342Z,1.95
2019-04-03T09:42:17.058Z,1.80
2019-04-03T09:44:46.694Z,1.70
2019-04-03T09:47:16.345Z,4.35
2019-04-03T09:49:47.337Z,2.50
2019-04-03T09:52:18.292Z,2.92
2019-04-03T09:54:54.295Z,2.17
2019-04-03T09:57:25.110Z,1.70
2019-04-03T09:59:54.842Z,3.30
2019-04-03T10:02:24.540Z,2.22
2019-04-03T10:04:55.574Z,3.12
2019-04-03T10:07:44.926Z,2.12
2019-04-03T10:10:16.542Z,1.70
2019-04-03T10:12:47.969Z,3.50
2019-04-03T10:15:21.884Z,8.53
2019-04-03T10:17:51.930Z,1.70
2019-04-03T10:20:22.045Z,2.60
2019-04-03T10:22:51.897Z,1.82
2019-04-03T10:25:21.658Z,2.25
2019-04-03T10:27:51.656Z,3.27
2019-04-03T10:30:22.501Z,2.10
2019-04-03T10:32:52.471Z,2.40
2019-04-03T10:35:22.228Z,1.90
2019-04-03T10:37:57.155Z,1.90
2019-04-03T10:40:37.064Z,2.92
2019-04-03T10:43:06.845Z,2.67
2019-04-03T10:45:36.555Z,2.55
2019-04-03T10:48:06.175Z,4.15
2019-04-03T10:50:38.196Z,2.65
2019-04-03T10:53:09.144Z,3.80
2019-04-03T10:55:39.089Z,10.93
2019-04-03T10:58:11.939Z,1.82
2019-04-03T11:00:41.682Z,1.90
2019-04-03T11:03:11.298Z,2.20
2019-04-03T11:05:41.590Z,2.40
2019-04-03T11:08:11.517Z,2.67
2019-04-03T11:10:43.772Z,1.62
2019-04-03T11:13:13.418Z,2.30
2019-04-03T11:15:44.696Z,2.22
2019-04-03T11:18:15.551Z,3.52
2019-04-03T11:20:45.486Z,2.10
2019-04-03T11:23:15.187Z,2.42
2019-04-03T11:25:46.282Z,2.02
2019-04-03T11:28:17.286Z,2.40
2019-04-03T11:30:47.241Z,1.80
2019-04-03T11:33:17.109Z,1.92
2019-04-03T11:35:46.859Z,1.85
2019-04-03T11:38:26.413Z,4.83
2019-04-03T11:40:50.300Z,1.60
2019-04-03T11:43:20.168Z,2.20
2019-04-03T11:45:51.934Z,2.87
2019-04-03T11:48:21.567Z,5.42
2019-04-03T11:50:52.296Z,2.40
2019-04-03T11:53:21.936Z,2.55
2019-04-03T11:55:52.658Z,2.15
2019-04-03T11:58:22.529Z,2.22
2019-04-03T12:00:52.472Z,1.70
2019-04-03T12:03:22.118Z,7.83
2019-04-03T12:05:51.742Z,3.27
2019-04-03T12:08:21.729Z,4.03
2019-04-03T12:10:51.809Z,10.38
2019-04-03T12:13:22.868Z,1.60
2019-04-03T12:15:53.576Z,3.20
2019-04-03T12:18:24.086Z,3.42
2019-04-03T12:20:56.682Z,3.65
2019-04-03T12:23:27.926Z,2.20
2019-04-03T12:25:57.627Z,2.40
2019-04-03T12:28:27.315Z,3.00
2019-04-03T12:30:57.095Z,1.95
2019-04-03T12:33:26.816Z,2.83
2019-04-03T12:35:56.489Z,5.30
2019-04-03T12:38:28.447Z,1.87
2019-04-03T12:40:58.063Z,6.12
2019-04-03T12:43:27.688Z,1.98
2019-04-03T12:46:02.442Z,2.90
2019-04-03T12:48:33.610Z,2.70
2019-04-03T12:51:03.315Z,2.15
2019-04-03T12:53:33.490Z,1.85
2019-04-03T12:56:07.785Z,3.67
2019-04-03T12:58:38.485Z,1.92
2019-04-03T13:01:10.787Z,3.65
2019-04-03T13:03:44.003Z,1.85
2019-04-03T13:06:13.789Z,2.45
2019-04-03T13:08:46.360Z,2.00
2019-04-03T13:11:18.682Z,2.52
2019-04-03T13:13:50.463Z,2.60
2019-04-03T13:16:22.585Z,2.08
2019-04-03T13:18:54.605Z,1.90
2019-04-03T13:21:24.342Z,2.90
2019-04-03T13:23:56.390Z,2.20
2019-04-03T13:26:26.054Z,1.70
2019-04-03T13:28:55.790Z,2.15
2019-04-03T13:31:25.551Z,2.62
2019-04-03T13:33:55.562Z,1.87
2019-04-03T13:36:25.426Z,1.98
2019-04-03T13:39:00.288Z,1.98
2019-04-03T13:41:28.312Z,3.25
2019-04-03T13:43:58.021Z,1.62
2019-04-03T13:46:27.761Z,2.60
2019-04-03T13:48:57.517Z,1.80
2019-04-03T13:51:27.886Z,1.98
2019-04-03T13:53:57.594Z,1.85
2019-04-03T13:56:27.450Z,4.90
2019-04-03T13:58:58.968Z,1.90
2019-04-03T14:01:29.010Z,2.08
2019-04-03T14:03:59.232Z,2.45
2019-04-03T14:06:29.937Z,1.70
2019-04-03T14:08:59.905Z,2.15
2019-04-03T14:11:31.256Z,3.65
2019-04-03T14:14:02.574Z,1.85
2019-04-03T14:16:34.357Z,1.80
2019-04-03T14:19:06.290Z,3.35
2019-04-03T14:21:40.754Z,4.45
2019-04-03T14:24:10.413Z,3.77
2019-04-03T14:26:40.054Z,2.77
2019-04-03T14:29:13.008Z,1.65
2019-04-03T14:31:42.651Z,2.22
2019-04-03T14:34:12.287Z,3.30
2019-04-03T14:36:43.134Z,2.80
2019-04-03T14:39:15.027Z,7.67
2019-04-03T14:41:44.653Z,2.50
2019-04-03T14:44:14.354Z,1.70
2019-04-03T14:46:43.974Z,2.15
2019-04-03T14:49:17.356Z,2.12
2019-04-03T14:51:47.139Z,1.60
2019-04-03T14:54:16.751Z,3.10
2019-04-03T14:56:49.125Z,2.17
2019-04-03T14:59:23.974Z,1.65
2019-04-03T15:01:56.274Z,2.55
2019-04-03T15:04:32.221Z,1.70
2019-04-03T15:07:03.448Z,3.17
2019-04-03T15:09:31.983Z,1.80
2019-04-03T15:12:01.777Z,1.60
2019-04-03T15:14:32.474Z,2.37
2019-04-03T15:17:04.822Z,4.12
2019-04-03T15:19:34.935Z,2.15
2019-04-03T15:22:04.968Z,3.37
2019-04-03T15:24:34.689Z,2.60
2019-04-03T15:27:04.394Z,2.67
2019-04-03T15:29:38.313Z,1.87
2019-04-03T15:32:09.485Z,2.00
2019-04-03T15:34:39.099Z,1.62
2019-04-03T15:37:09.289Z,3.58
2019-04-03T15:39:41.473Z,4.47
2019-04-03T15:42:13.539Z,1.92
2019-04-03T15:44:43.348Z,1.85
2019-04-03T15:47:13.358Z,2.12
2019-04-03T15:49:44.141Z,2.08
2019-04-03T15:52:13.880Z,3.55
2019-04-03T15:54:43.525Z,1.77
2019-04-03T15:57:13.375Z,1.40
2019-04-03T15:59:43.038Z,3.72
2019-04-03T16:02:13.326Z,1.82
2019-04-03T16:04:43.081Z,1.95
2019-04-03T16:07:14.335Z,2.90
2019-04-03T16:09:43.953Z,2.20
2019-04-03T16:12:13.653Z,2.62
2019-04-03T16:14:43.422Z,3.37
2019-04-03T16:17:13.474Z,3.42
2019-04-03T16:19:44.601Z,2.30
2019-04-03T16:22:17.548Z,2.35
2019-04-03T16:24:49.243Z,2.95
2019-04-03T16:27:22.144Z,3.15
2019-04-03T16:29:51.875Z,3.75
2019-04-03T16:32:28.293Z,6.17
2019-04-03T16:34:57.959Z,4.70
2019-04-03T16:37:27.699Z,5.83
2019-04-03T16:39:57.397Z,22.58
2019-04-03T16:42:27.152Z,32.38
2019-04-03T16:44:58.245Z,37.55
2019-04-03T16:47:28.075Z,19.07
2019-04-03T16:49:57.730Z,24.57
2019-04-03T16:52:30.079Z,37.88
2019-04-03T16:54:58.932Z,29.32
2019-04-03T16:57:28.690Z,25.52
2019-04-03T16:59:58.636Z,20.68
2019-04-03T17:02:53.976Z,20.85
2019-04-03T17:05:26.939Z,22.60
2019-04-03T17:07:59.425Z,24.85
2019-04-03T17:10:29.193Z,19.90
2019-04-03T17:13:01.318Z,25.30
2019-04-03T17:15:32.232Z,33.08
2019-04-03T17:18:02.767Z,19.80
2019-04-03T17:20:35.564Z,18.85
2019-04-03T17:23:05.595Z,20.35
2019-04-03T17:25:48.230Z,23.47
2019-04-03T17:28:11.236Z,23.02
2019-04-03T17:30:41.411Z,16.60
2019-04-03T17:33:14.342Z,20.37
2019-04-03T17:35:45.926Z,24.87
2019-04-03T17:38:15.567Z,19.02
2019-04-03T17:40:54.019Z,28.45
2019-04-03T17:43:24.987Z,23.92
2019-04-03T17:45:54.637Z,16.75
2019-04-03T17:48:24.808Z,12.43
2019-04-03T17:50:55.971Z,14.90
2019-04-03T17:53:25.711Z,12.40
2019-04-03T17:55:55.369Z,11.45
2019-04-03T17:58:27.650Z,16.00
2019-04-03T18:00:59.161Z,9.90
2019-04-03T18:03:33.372Z,12.37
2019-04-03T18:06:04.479Z,11.00
2019-04-03T18:08:35.729Z,11.97
2019-04-03T18:11:05.446Z,13.48
2019-04-03T18:13:35.155Z,17.00
2019-04-03T18:16:07.889Z,15.32
2019-04-03T18:18:38.161Z,12.90
2019-04-03T18:21:07.916Z,12.73
2019-04-03T18:23:37.666Z,8.00
2019-04-03T18:26:07.500Z,24.50
2019-04-03T18:28:37.120Z,14.30
2019-04-03T18:31:07.364Z,21.15
2019-04-03T18:33:37.107Z,8.93
2019-04-03T18:36:10.548Z,7.65
2019-04-03T18:38:45.582Z,7.87
2019-04-03T18:41:16.982Z,10.55
2019-04-03T18:43:46.715Z,6.87
2019-04-03T18:46:31.660Z,7.33
2019-04-03T18:48:54.612Z,9.45
2019-04-03T18:51:22.891Z,5.80
2019-04-03T18:53:52.504Z,4.85
2019-04-03T18:56:22.307Z,5.97
2019-04-03T18:58:54.754Z,13.32
2019-04-03T19:01:23.323Z,4.78
2019-04-03T19:03:53.404Z,4.58
2019-04-03T19:06:25.921Z,7.50
2019-04-03T19:09:04.465Z,4.80
2019-04-03T19:11:28.590Z,9.15
2019-04-03T19:13:58.233Z,11.60
2019-04-03T19:16:29.661Z,10.23
2019-04-03T19:19:08.001Z,6.08
2019-04-03T19:21:30.880Z,7.35
2019-04-03T19:24:00.521Z,10.08
2019-04-03T19:26:36.605Z,7.90
2019-04-03T19:29:08.456Z,7.45
2019-04-03T19:31:39.833Z,9.33
2019-04-03T19:34:09.383Z,6.50
2019-04-03T19:36:39.460Z,5.12
2019-04-03T19:39:09.316Z,7.65
2019-04-03T19:41:43.967Z,6.87
2019-04-03T19:44:13.667Z,4.92
2019-04-03T19:46:43.544Z,4.72
2019-04-03T19:49:13.171Z,4.37
2019-04-03T19:51:42.821Z,5.45
2019-04-03T19:54:12.731Z,2.87
2019-04-03T19:56:42.505Z,4.03
2019-04-03T19:59:13.472Z,6.35
2019-04-03T20:01:43.291Z,7.50
2019-04-03T20:04:15.761Z,4.85
2019-04-03T20:06:44.520Z,3.70
2019-04-03T20:09:14.294Z,4.78
2019-04-03T20:11:44.045Z,4.40
2019-04-03T20:14:14.303Z,4.37
2019-04-03T20:16:44.121Z,2.80
2019-04-03T20:19:13.740Z,3.08
2019-04-03T20:21:43.404Z,3.90
2019-04-03T20:24:13.399Z,3.40
2019-04-03T20:26:46.335Z,6.70
2019-04-03T20:29:15.478Z,4.80
2019-04-03T20:31:45.149Z,7.08
2019-04-03T20:34:14.837Z,9.83
2019-04-03T20:36:44.474Z,2.42
2019-04-03T20:39:14.124Z,4.95
2019-04-03T20:41:45.868Z,4.72
2019-04-03T20:44:19.309Z,4.50
2019-04-03T20:46:51.262Z,2.72
2019-04-03T20:49:20.909Z,3.95
2019-04-03T20:51:50.555Z,3.85
2019-04-03T20:54:21.388Z,6.65
2019-04-03T20:56:57.822Z,4.17
2019-04-03T20:59:22.937Z,7.03
2019-04-03T21:01:52.567Z,2.90
2019-04-03T21:04:22.280Z,6.33
2019-04-03T21:06:52.296Z,4.42
2019-04-03T21:09:21.999Z,11.08
2019-04-03T21:11:51.884Z,4.47
2019-04-03T21:14:23.137Z,3.02
2019-04-03T21:16:55.916Z,7.37
2019-04-03T21:19:30.532Z,3.50
2019-04-03T21:22:00.357Z,3.00
2019-04-03T21:24:30.022Z,4.30
2019-04-03T21:26:59.640Z,3.08
2019-04-03T21:29:29.271Z,2.87
2019-04-03T21:31:58.894Z,5.03
2019-04-03T21:34:32.735Z,6.85
2019-04-03T21:37:02.853Z,3.98
2019-04-03T21:39:33.956Z,3.12
2019-04-03T21:42:03.787Z,3.60
2019-04-03T21:44:33.536Z,4.03
2019-04-03T21:47:03.236Z,3.58
2019-04-03T21:49:32.964Z,4.05
2019-04-03T21:52:02.615Z,4.08
2019-04-03T21:54:32.348Z,2.52
2019-04-03T21:57:02.126Z,4.62
2019-04-03T21:59:31.758Z,4.22
2019-04-03T22:02:01.433Z,5.65
2019-04-03T22:04:31.114Z,2.75
2019-04-03T22:07:00.748Z,4.25
2019-04-03T22:09:31.442Z,4.37
2019-04-03T22:12:01.096Z,2.95
2019-04-03T22:14:30.862Z,2.98
2019-04-03T22:17:00.487Z,3.47
2019-04-03T22:19:32.946Z,5.00
2019-04-03T22:22:03.117Z,4.05
2019-04-03T22:24:33.320Z,6.20
2019-04-03T22:27:03.128Z,3.45
2019-04-03T22:29:35.294Z,3.55
2019-04-03T22:32:04.912Z,4.03
2019-04-03T22:34:34.616Z,2.85
2019-04-03T22:37:04.682Z,2.40
2019-04-03T22:39:36.985Z,4.40
2019-04-03T22:42:06.634Z,4.40
2019-04-03T22:44:36.247Z,2.90
2019-04-03T22:47:05.860Z,3.15
2019-04-03T22:49:35.486Z,5.70
2019-04-03T22:52:05.191Z,3.52
2019-04-03T22:54:34.812Z,3.62
2019-04-03T22:57:04.509Z,2.20
2019-04-03T22:59:34.215Z,3.92
2019-04-03T23:02:03.906Z,2.85
2019-04-03T23:04:33.571Z,3.95
2019-04-03T23:07:03.206Z,12.35
2019-04-03T23:09:32.821Z,9.30
2019-04-03T23:12:03.068Z,2.02
2019-04-03T23:14:33.365Z,2.83
2019-04-03T23:17:02.977Z,2.05
2019-04-03T23:19:32.624Z,10.75
2019-04-03T23:22:02.236Z,3.15
2019-04-03T23:24:33.512Z,3.17
2019-04-03T23:27:03.227Z,3.17
2019-04-03T23:29:35.949Z,2.58
2019-04-03T23:32:05.330Z,2.52
2019-04-03T23:34:35.069Z,2.47
2019-04-03T23:37:04.784Z,3.55
2019-04-03T23:39:34.464Z,2.50
2019-04-03T23:42:10.281Z,3.33
2019-04-03T23:44:41.833Z,2.95
2019-04-03T23:47:11.215Z,3.02
2019-04-03T23:49:41.278Z,3.05
2019-04-03T23:52:11.064Z,5.70
2019-04-03T23:54:41.983Z,3.52
2019-04-03T23:57:11.666Z,3.17
2019-04-03T23:59:42.463Z,4.95
